sensor_id;sensor_type;location;lat;lon;timestamp;pressure;altitude;pressure_sealevel;temperature
73673;BMP280;61972;19.480;-99.240;2023-03-14T00:00:13;77550.66;;;28.16
73673;BMP280;61972;19.480;-99.240;2023-03-14T00:02:40;77549.56;;;28.15
73673;BMP280;61972;19.480;-99.240;2023-03-14T00:05:07;77548.47;;;28.14
73673;BMP280;61972;19.480;-99.240;2023-03-14T00:07:37;77545.81;;;28.14
73673;BMP280;61972;19.480;-99.240;2023-03-14T00:10:06;77544.72;;;28.13
73673;BMP280;61972;19.480;-99.240;2023-03-14T00:12:33;77545.69;;;28.11
73673;BMP280;61972;19.480;-99.240;2023-03-14T00:14:59;77550.94;;;28.11
73673;BMP280;61972;19.480;-99.240;2023-03-14T00:17:30;77544.03;;;28.10
73673;BMP280;61972;19.480;-99.240;2023-03-14T00:19:56;77549.28;;;28.10
73673;BMP280;61972;19.480;-99.240;2023-03-14T00:22:22;77549.28;;;28.10
73673;BMP280;61972;19.480;-99.240;2023-03-14T00:24:48;77553.44;;;28.08
73673;BMP280;61972;19.480;-99.240;2023-03-14T00:27:14;77561.31;;;28.08
73673;BMP280;61972;19.480;-99.240;2023-03-14T00:29:42;77566.97;;;28.06
73673;BMP280;61972;19.480;-99.240;2023-03-14T00:32:08;77577.47;;;28.06
73673;BMP280;61972;19.480;-99.240;2023-03-14T00:34:34;77586.88;;;28.05
73673;BMP280;61972;19.480;-99.240;2023-03-14T00:37:00;77602.09;;;28.05
73673;BMP280;61972;19.480;-99.240;2023-03-14T00:39:26;77607.91;;;28.05
73673;BMP280;61972;19.480;-99.240;2023-03-14T00:41:53;77618.81;;;28.03
73673;BMP280;61972;19.480;-99.240;2023-03-14T00:44:19;77626.69;;;28.03
73673;BMP280;61972;19.480;-99.240;2023-03-14T00:46:45;77633.50;;;28.02
73673;BMP280;61972;19.480;-99.240;2023-03-14T00:49:11;77638.75;;;28.02
73673;BMP280;61972;19.480;-99.240;2023-03-14T00:51:37;77644.94;;;28.01
73673;BMP280;61972;19.480;-99.240;2023-03-14T00:54:03;77642.72;;;27.99
73673;BMP280;61972;19.480;-99.240;2023-03-14T00:56:29;77650.59;;;27.99
73673;BMP280;61972;19.480;-99.240;2023-03-14T00:58:56;77645.75;;;27.97
73673;BMP280;61972;19.480;-99.240;2023-03-14T01:01:23;77660.56;;;27.98
73673;BMP280;61972;19.480;-99.240;2023-03-14T01:03:53;77662.06;;;27.97
73673;BMP280;61972;19.480;-99.240;2023-03-14T01:06:22;77666.22;;;27.96
73673;BMP280;61972;19.480;-99.240;2023-03-14T01:08:49;77668.84;;;27.96
73673;BMP280;61972;19.480;-99.240;2023-03-14T01:11:18;77671.88;;;27.94
73673;BMP280;61972;19.480;-99.240;2023-03-14T01:13:44;77674.50;;;27.94
73673;BMP280;61972;19.480;-99.240;2023-03-14T01:16:12;77678.66;;;27.93
73673;BMP280;61972;19.480;-99.240;2023-03-14T01:18:39;77677.53;;;27.92
73673;BMP280;61972;19.480;-99.240;2023-03-14T01:21:12;77678.50;;;27.91
73673;BMP280;61972;19.480;-99.240;2023-03-14T01:23:39;77685.84;;;27.90
73673;BMP280;61972;19.480;-99.240;2023-03-14T01:26:08;77689.97;;;27.89
73673;BMP280;61972;19.480;-99.240;2023-03-14T01:28:34;77705.19;;;27.88
73673;BMP280;61972;19.480;-99.240;2023-03-14T01:31:09;77702.00;;;27.88
73673;BMP280;61972;19.480;-99.240;2023-03-14T01:33:36;77699.78;;;27.86
73673;BMP280;61972;19.480;-99.240;2023-03-14T01:36:02;77702.81;;;27.84
73673;BMP280;61972;19.480;-99.240;2023-03-14T01:38:30;77709.03;;;27.82
73673;BMP280;61972;19.480;-99.240;2023-03-14T01:40:56;77713.72;;;27.82
73673;BMP280;61972;19.480;-99.240;2023-03-14T01:43:23;77714.13;;;27.80
73673;BMP280;61972;19.480;-99.240;2023-03-14T01:51:33;77721.28;;;27.77
73673;BMP280;61972;19.480;-99.240;2023-03-14T01:56:53;77726.97;;;27.75
73673;BMP280;61972;19.480;-99.240;2023-03-14T01:59:22;77720.59;;;27.74
73673;BMP280;61972;19.480;-99.240;2023-03-14T02:01:51;77726.41;;;27.74
73673;BMP280;61972;19.480;-99.240;2023-03-14T02:04:18;77730.00;;;27.73
73673;BMP280;61972;19.480;-99.240;2023-03-14T02:06:54;77735.25;;;27.73
73673;BMP280;61972;19.480;-99.240;2023-03-14T02:09:21;77735.25;;;27.73
73673;BMP280;61972;19.480;-99.240;2023-03-14T02:11:49;77739.38;;;27.72
73673;BMP280;61972;19.480;-99.240;2023-03-14T02:14:32;77747.66;;;27.69
73673;BMP280;61972;19.480;-99.240;2023-03-14T02:17:00;77762.88;;;27.69
73673;BMP280;61972;19.480;-99.240;2023-03-14T02:19:40;77771.69;;;27.67
73673;BMP280;61972;19.480;-99.240;2023-03-14T02:22:13;77773.78;;;27.67
73673;BMP280;61972;19.480;-99.240;2023-03-14T02:27:17;77775.56;;;27.61
73673;BMP280;61972;19.480;-99.240;2023-03-14T02:29:58;77779.13;;;27.60
73673;BMP280;61972;19.480;-99.240;2023-03-14T02:32:27;77782.16;;;27.58
73673;BMP280;61972;19.480;-99.240;2023-03-14T02:34:56;77783.66;;;27.57
73673;BMP280;61972;19.480;-99.240;2023-03-14T02:37:28;77784.59;;;27.55
73673;BMP280;61972;19.480;-99.240;2023-03-14T02:39:56;77787.63;;;27.53
73673;BMP280;61972;19.480;-99.240;2023-03-14T02:42:22;77787.09;;;27.52
73673;BMP280;61972;19.480;-99.240;2023-03-14T02:44:54;77784.88;;;27.50
73673;BMP280;61972;19.480;-99.240;2023-03-14T02:47:27;77796.88;;;27.49
73673;BMP280;61972;19.480;-99.240;2023-03-14T02:50:09;77804.19;;;27.49
73673;BMP280;61972;19.480;-99.240;2023-03-14T02:52:36;77810.97;;;27.48
73673;BMP280;61972;19.480;-99.240;2023-03-14T02:55:02;77822.97;;;27.47
73673;BMP280;61972;19.480;-99.240;2023-03-14T02:57:29;77833.88;;;27.45
73673;BMP280;61972;19.480;-99.240;2023-03-14T03:00:01;77838.00;;;27.44
73673;BMP280;61972;19.480;-99.240;2023-03-14T03:02:30;77845.31;;;27.43
73673;BMP280;61972;19.480;-99.240;2023-03-14T03:04:56;77853.59;;;27.41
73673;BMP280;61972;19.480;-99.240;2023-03-14T03:07:22;77857.16;;;27.40
73673;BMP280;61972;19.480;-99.240;2023-03-14T03:09:48;77866.00;;;27.38
73673;BMP280;61972;19.480;-99.240;2023-03-14T03:12:14;77875.94;;;27.38
73673;BMP280;61972;19.480;-99.240;2023-03-14T03:14:40;77877.84;;;27.35
73673;BMP280;61972;19.480;-99.240;2023-03-14T03:17:07;77887.22;;;27.33
73673;BMP280;61972;19.480;-99.240;2023-03-14T03:19:34;77881.25;;;27.30
73673;BMP280;61972;19.480;-99.240;2023-03-14T03:22:00;77887.06;;;27.31
73673;BMP280;61972;19.480;-99.240;2023-03-14T03:24:26;77881.66;;;27.28
73673;BMP280;61972;19.480;-99.240;2023-03-14T03:26:53;77885.25;;;27.27
73673;BMP280;61972;19.480;-99.240;2023-03-14T03:29:19;77889.38;;;27.26
73673;BMP280;61972;19.480;-99.240;2023-03-14T03:31:45;77885.06;;;27.24
73673;BMP280;61972;19.480;-99.240;2023-03-14T03:34:12;77889.63;;;27.21
73673;BMP280;61972;19.480;-99.240;2023-03-14T03:36:38;77900.13;;;27.21
73673;BMP280;61972;19.480;-99.240;2023-03-14T03:39:05;77907.25;;;27.18
73673;BMP280;61972;19.480;-99.240;2023-03-14T03:41:31;77909.72;;;27.16
73673;BMP280;61972;19.480;-99.240;2023-03-14T03:43:58;77915.91;;;27.14
73673;BMP280;61972;19.480;-99.240;2023-03-14T03:46:24;77904.69;;;27.11
73673;BMP280;61972;19.480;-99.240;2023-03-14T03:48:55;77907.75;;;27.09
73673;BMP280;61972;19.480;-99.240;2023-03-14T03:51:21;77906.63;;;27.08
73673;BMP280;61972;19.480;-99.240;2023-03-14T03:53:47;77897.47;;;27.04
73673;BMP280;61972;19.480;-99.240;2023-03-14T03:56:13;77905.75;;;27.02
73673;BMP280;61972;19.480;-99.240;2023-03-14T03:58:39;77908.19;;;27.00
73673;BMP280;61972;19.480;-99.240;2023-03-14T04:01:06;77908.03;;;26.97
73673;BMP280;61972;19.480;-99.240;2023-03-14T04:03:32;77910.09;;;26.97
73673;BMP280;61972;19.480;-99.240;2023-03-14T04:06:07;77919.47;;;26.95
73673;BMP280;61972;19.480;-99.240;2023-03-14T04:08:33;77920.97;;;26.94
73673;BMP280;61972;19.480;-99.240;2023-03-14T04:11:01;77923.59;;;26.94
73673;BMP280;61972;19.480;-99.240;2023-03-14T04:13:27;77917.63;;;26.91
73673;BMP280;61972;19.480;-99.240;2023-03-14T04:15:54;77923.28;;;26.89
73673;BMP280;61972;19.480;-99.240;2023-03-14T04:18:21;77932.66;;;26.88
73673;BMP280;61972;19.480;-99.240;2023-03-14T04:20:53;77945.75;;;26.88
73673;BMP280;61972;19.480;-99.240;2023-03-14T04:23:20;77945.59;;;26.86
73673;BMP280;61972;19.480;-99.240;2023-03-14T04:25:47;77941.84;;;26.85
73673;BMP280;61972;19.480;-99.240;2023-03-14T04:28:13;77942.81;;;26.83
73673;BMP280;61972;19.480;-99.240;2023-03-14T04:30:39;77923.91;;;26.83
73673;BMP280;61972;19.480;-99.240;2023-03-14T04:33:05;77919.59;;;26.81
73673;BMP280;61972;19.480;-99.240;2023-03-14T04:35:34;77913.78;;;26.81
73673;BMP280;61972;19.480;-99.240;2023-03-14T04:38:01;77902.19;;;26.80
73673;BMP280;61972;19.480;-99.240;2023-03-14T04:40:27;77896.41;;;26.79
73673;BMP280;61972;19.480;-99.240;2023-03-14T04:42:53;77894.72;;;26.77
73673;BMP280;61972;19.480;-99.240;2023-03-14T04:45:19;77887.81;;;26.76
73673;BMP280;61972;19.480;-99.240;2023-03-14T04:47:45;77890.81;;;26.74
73673;BMP280;61972;19.480;-99.240;2023-03-14T04:50:11;77885.03;;;26.73
73673;BMP280;61972;19.480;-99.240;2023-03-14T04:52:37;77877.00;;;26.71
73673;BMP280;61972;19.480;-99.240;2023-03-14T04:55:03;77863.16;;;26.68
73673;BMP280;61972;19.480;-99.240;2023-03-14T04:57:29;77851.81;;;26.62
73673;BMP280;61972;19.480;-99.240;2023-03-14T04:59:56;77833.69;;;26.57
73673;BMP280;61972;19.480;-99.240;2023-03-14T05:02:22;77817.78;;;26.55
73673;BMP280;61972;19.480;-99.240;2023-03-14T05:04:48;77831.84;;;26.53
73673;BMP280;61972;19.480;-99.240;2023-03-14T05:07:14;77859.56;;;26.52
73673;BMP280;61972;19.480;-99.240;2023-03-14T05:09:40;77882.75;;;26.54
73673;BMP280;61972;19.480;-99.240;2023-03-14T05:12:06;77891.16;;;26.55
73673;BMP280;61972;19.480;-99.240;2023-03-14T05:14:32;77887.06;;;26.56
73673;BMP280;61972;19.480;-99.240;2023-03-14T05:16:58;77885.38;;;26.54
73673;BMP280;61972;19.480;-99.240;2023-03-14T05:19:24;77882.75;;;26.54
73673;BMP280;61972;19.480;-99.240;2023-03-14T05:21:50;77880.69;;;26.55
73673;BMP280;61972;19.480;-99.240;2023-03-14T05:24:16;77882.75;;;26.54
73673;BMP280;61972;19.480;-99.240;2023-03-14T05:26:42;77881.63;;;26.53
73673;BMP280;61972;19.480;-99.240;2023-03-14T05:29:08;77882.03;;;26.51
73673;BMP280;61972;19.480;-99.240;2023-03-14T05:31:34;77883.00;;;26.50
73673;BMP280;61972;19.480;-99.240;2023-03-14T05:34:00;77876.63;;;26.49
73673;BMP280;61972;19.480;-99.240;2023-03-14T05:36:26;77876.63;;;26.49
73673;BMP280;61972;19.480;-99.240;2023-03-14T05:38:52;77872.31;;;26.47
73673;BMP280;61972;19.480;-99.240;2023-03-14T05:41:19;77864.47;;;26.47
73673;BMP280;61972;19.480;-99.240;2023-03-14T05:43:45;77868.59;;;26.46
73673;BMP280;61972;19.480;-99.240;2023-03-14T05:46:11;77854.38;;;26.45
73673;BMP280;61972;19.480;-99.240;2023-03-14T05:48:37;77849.13;;;26.45
73673;BMP280;61972;19.480;-99.240;2023-03-14T05:51:03;77853.28;;;26.44
73673;BMP280;61972;19.480;-99.240;2023-03-14T05:53:29;77857.41;;;26.43
73673;BMP280;61972;19.480;-99.240;2023-03-14T05:55:56;77862.09;;;26.43
73673;BMP280;61972;19.480;-99.240;2023-03-14T05:58:22;77855.16;;;26.41
73673;BMP280;61972;19.480;-99.240;2023-03-14T06:00:49;77853.66;;;26.42
73673;BMP280;61972;19.480;-99.240;2023-03-14T06:03:16;77848.59;;;26.45
73673;BMP280;61972;19.480;-99.240;2023-03-14T06:05:42;77837.16;;;26.46
73673;BMP280;61972;19.480;-99.240;2023-03-14T06:08:08;77834.53;;;26.46
73673;BMP280;61972;19.480;-99.240;2023-03-14T06:10:35;77828.91;;;26.48
73673;BMP280;61972;19.480;-99.240;2023-03-14T06:13:02;77837.34;;;26.49
73673;BMP280;61972;19.480;-99.240;2023-03-14T06:15:28;77836.75;;;26.48
73673;BMP280;61972;19.480;-99.240;2023-03-14T06:17:55;77848.94;;;26.50
73673;BMP280;61972;19.480;-99.240;2023-03-14T06:20:21;77857.91;;;26.51
73673;BMP280;61972;19.480;-99.240;2023-03-14T06:22:47;77851.56;;;26.50
73673;BMP280;61972;19.480;-99.240;2023-03-14T06:25:13;77854.72;;;26.50
73673;BMP280;61972;19.480;-99.240;2023-03-14T06:27:40;77855.81;;;26.51
73673;BMP280;61972;19.480;-99.240;2023-03-14T06:30:06;77841.06;;;26.50
73673;BMP280;61972;19.480;-99.240;2023-03-14T06:32:33;77843.69;;;26.50
73673;BMP280;61972;19.480;-99.240;2023-03-14T06:34:59;77836.00;;;26.52
73673;BMP280;61972;19.480;-99.240;2023-03-14T06:37:29;77831.84;;;26.53
73673;BMP280;61972;19.480;-99.240;2023-03-14T06:39:56;77838.22;;;26.54
73673;BMP280;61972;19.480;-99.240;2023-03-14T06:42:22;77838.22;;;26.54
73673;BMP280;61972;19.480;-99.240;2023-03-14T06:44:48;77838.22;;;26.54
73673;BMP280;61972;19.480;-99.240;2023-03-14T06:47:14;77832.41;;;26.54
73673;BMP280;61972;19.480;-99.240;2023-03-14T06:49:40;77835.00;;;26.54
73673;BMP280;61972;19.480;-99.240;2023-03-14T06:52:06;77842.88;;;26.54
73673;BMP280;61972;19.480;-99.240;2023-03-14T06:54:32;77829.22;;;26.53
73673;BMP280;61972;19.480;-99.240;2023-03-14T06:56:58;77817.66;;;26.52
73673;BMP280;61972;19.480;-99.240;2023-03-14T07:01:50;77810.34;;;26.53
73673;BMP280;61972;19.480;-99.240;2023-03-14T07:04:17;77800.41;;;26.53
73673;BMP280;61972;19.480;-99.240;2023-03-14T07:06:43;77793.50;;;26.52
73673;BMP280;61972;19.480;-99.240;2023-03-14T07:09:14;77803.41;;;26.51
73673;BMP280;61972;19.480;-99.240;2023-03-14T07:11:42;77801.19;;;26.49
73673;BMP280;61972;19.480;-99.240;2023-03-14T07:14:09;77803.81;;;26.49
73673;BMP280;61972;19.480;-99.240;2023-03-14T07:16:35;77790.16;;;26.49
73673;BMP280;61972;19.480;-99.240;2023-03-14T07:19:02;77793.72;;;26.47
73673;BMP280;61972;19.480;-99.240;2023-03-14T07:21:28;77792.06;;;26.46
73673;BMP280;61972;19.480;-99.240;2023-03-14T07:23:55;77791.50;;;26.45
73673;BMP280;61972;19.480;-99.240;2023-03-14T07:26:21;77795.06;;;26.44
73673;BMP280;61972;19.480;-99.240;2023-03-14T07:28:47;77806.13;;;26.44
73673;BMP280;61972;19.480;-99.240;2023-03-14T07:31:13;77796.19;;;26.45
73673;BMP280;61972;19.480;-99.240;2023-03-14T07:33:39;77799.78;;;26.43
73673;BMP280;61972;19.480;-99.240;2023-03-14T07:36:05;77792.28;;;26.41
73673;BMP280;61972;19.480;-99.240;2023-03-14T07:38:32;77778.47;;;26.38
73673;BMP280;61972;19.480;-99.240;2023-03-14T07:40:59;77781.09;;;26.38
73673;BMP280;61972;19.480;-99.240;2023-03-14T07:43:25;77770.63;;;26.38
73673;BMP280;61972;19.480;-99.240;2023-03-14T07:45:51;77763.31;;;26.38
73673;BMP280;61972;19.480;-99.240;2023-03-14T07:48:18;77766.88;;;26.37
73673;BMP280;61972;19.480;-99.240;2023-03-14T07:50:44;77760.53;;;26.36
73673;BMP280;61972;19.480;-99.240;2023-03-14T07:53:13;77759.41;;;26.35
73673;BMP280;61972;19.480;-99.240;2023-03-14T07:55:39;77760.34;;;26.33
73673;BMP280;61972;19.480;-99.240;2023-03-14T07:58:06;77768.22;;;26.33
73673;BMP280;61972;19.480;-99.240;2023-03-14T08:00:32;77759.25;;;26.32
73673;BMP280;61972;19.480;-99.240;2023-03-14T08:02:58;77750.69;;;26.29
73673;BMP280;61972;19.480;-99.240;2023-03-14T08:05:24;77746.38;;;26.28
73673;BMP280;61972;19.480;-99.240;2023-03-14T08:07:50;77750.50;;;26.27
73673;BMP280;61972;19.480;-99.240;2023-03-14T08:10:16;77745.81;;;26.27
73673;BMP280;61972;19.480;-99.240;2023-03-14T08:12:55;77741.00;;;26.25
73673;BMP280;61972;19.480;-99.240;2023-03-14T08:15:22;77740.44;;;26.25
73673;BMP280;61972;19.480;-99.240;2023-03-14T08:17:49;77744.16;;;26.26
73673;BMP280;61972;19.480;-99.240;2023-03-14T08:20:17;77735.19;;;26.25
73673;BMP280;61972;19.480;-99.240;2023-03-14T08:22:44;77739.31;;;26.24
73673;BMP280;61972;19.480;-99.240;2023-03-14T08:25:10;77733.91;;;26.21
73673;BMP280;61972;19.480;-99.240;2023-03-14T08:27:37;77727.97;;;26.18
73673;BMP280;61972;19.480;-99.240;2023-03-14T08:30:05;77727.81;;;26.15
73673;BMP280;61972;19.480;-99.240;2023-03-14T08:32:32;77727.25;;;26.15
73673;BMP280;61972;19.480;-99.240;2023-03-14T08:34:58;77727.63;;;26.13
73673;BMP280;61972;19.480;-99.240;2023-03-14T08:37:24;77729.72;;;26.12
73673;BMP280;61972;19.480;-99.240;2023-03-14T08:39:51;77718.69;;;26.12
73673;BMP280;61972;19.480;-99.240;2023-03-14T08:42:17;77722.81;;;26.11
73673;BMP280;61972;19.480;-99.240;2023-03-14T08:44:44;77724.47;;;26.12
73673;BMP280;61972;19.480;-99.240;2023-03-14T08:47:10;77714.00;;;26.12
73673;BMP280;61972;19.480;-99.240;2023-03-14T08:49:36;77715.66;;;26.14
73673;BMP280;61972;19.480;-99.240;2023-03-14T08:52:03;77713.75;;;26.17
73673;BMP280;61972;19.480;-99.240;2023-03-14T08:54:30;77712.97;;;26.21
73673;BMP280;61972;19.480;-99.240;2023-03-14T08:56:57;77712.75;;;26.26
73673;BMP280;61972;19.480;-99.240;2023-03-14T08:59:23;77709.88;;;26.30
73673;BMP280;61972;19.480;-99.240;2023-03-14T09:01:49;77708.69;;;26.36
73673;BMP280;61972;19.480;-99.240;2023-03-14T09:04:16;77702.09;;;26.40
73673;BMP280;61972;19.480;-99.240;2023-03-14T09:06:42;77706.16;;;26.46
73673;BMP280;61972;19.480;-99.240;2023-03-14T09:09:08;77693.91;;;26.52
73673;BMP280;61972;19.480;-99.240;2023-03-14T09:11:35;77686.94;;;26.57
73673;BMP280;61972;19.480;-99.240;2023-03-14T09:14:01;77680.47;;;26.64
73673;BMP280;61972;19.480;-99.240;2023-03-14T09:16:27;77672.56;;;26.71
73673;BMP280;61972;19.480;-99.240;2023-03-14T09:18:53;77661.56;;;26.80
73673;BMP280;61972;19.480;-99.240;2023-03-14T09:21:21;77662.75;;;26.91
73673;BMP280;61972;19.480;-99.240;2023-03-14T09:23:47;77671.78;;;27.02
73673;BMP280;61972;19.480;-99.240;2023-03-14T09:26:13;77673.22;;;27.18
73673;BMP280;61972;19.480;-99.240;2023-03-14T09:28:39;77681.88;;;27.30
73673;BMP280;61972;19.480;-99.240;2023-03-14T09:31:09;77684.84;;;27.45
73673;BMP280;61972;19.480;-99.240;2023-03-14T09:33:36;77685.19;;;27.60
73673;BMP280;61972;19.480;-99.240;2023-03-14T09:36:03;77685.38;;;27.73
73673;BMP280;61972;19.480;-99.240;2023-03-14T09:38:29;77689.69;;;27.84
73673;BMP280;61972;19.480;-99.240;2023-03-14T09:40:57;77685.00;;;27.94
73673;BMP280;61972;19.480;-99.240;2023-03-14T09:43:27;77680.34;;;28.04
73673;BMP280;61972;19.480;-99.240;2023-03-14T09:45:54;77677.72;;;28.14
73673;BMP280;61972;19.480;-99.240;2023-03-14T09:48:24;77674.00;;;28.23
73673;BMP280;61972;19.480;-99.240;2023-03-14T09:50:54;77675.69;;;28.34
73673;BMP280;61972;19.480;-99.240;2023-03-14T09:53:25;77677.78;;;28.43
73673;BMP280;61972;19.480;-99.240;2023-03-14T09:55:53;77677.78;;;28.53
73673;BMP280;61972;19.480;-99.240;2023-03-14T09:58:22;77679.88;;;28.62
73673;BMP280;61972;19.480;-99.240;2023-03-14T10:00:50;77689.16;;;28.69
73673;BMP280;61972;19.480;-99.240;2023-03-14T10:03:32;77692.19;;;28.76
73673;BMP280;61972;19.480;-99.240;2023-03-14T10:05:59;77692.06;;;28.83
73673;BMP280;61972;19.480;-99.240;2023-03-14T10:08:25;77696.06;;;28.90
73673;BMP280;61972;19.480;-99.240;2023-03-14T10:10:52;77693.16;;;28.94
73673;BMP280;61972;19.480;-99.240;2023-03-14T10:13:21;77690.94;;;29.02
73673;BMP280;61972;19.480;-99.240;2023-03-14T10:16:08;77692.88;;;29.09
73673;BMP280;61972;19.480;-99.240;2023-03-14T10:18:34;77690.53;;;29.14
73673;BMP280;61972;19.480;-99.240;2023-03-14T10:21:07;77696.47;;;29.17
73673;BMP280;61972;19.480;-99.240;2023-03-14T10:23:42;77694.53;;;29.20
73673;BMP280;61972;19.480;-99.240;2023-03-14T10:26:26;77694.66;;;29.23
73673;BMP280;61972;19.480;-99.240;2023-03-14T10:29:00;77697.44;;;29.25
73673;BMP280;61972;19.480;-99.240;2023-03-14T10:31:27;77696.47;;;29.27
73673;BMP280;61972;19.480;-99.240;2023-03-14T10:34:03;77698.09;;;29.28
73673;BMP280;61972;19.480;-99.240;2023-03-14T10:36:32;77705.16;;;29.32
73673;BMP280;61972;19.480;-99.240;2023-03-14T10:42:14;77699.22;;;29.39
73673;BMP280;61972;19.480;-99.240;2023-03-14T10:44:42;77707.78;;;29.42
73673;BMP280;61972;19.480;-99.240;2023-03-14T10:47:19;77715.81;;;29.45
73673;BMP280;61972;19.480;-99.240;2023-03-14T10:49:47;77709.59;;;29.46
73673;BMP280;61972;19.480;-99.240;2023-03-14T10:52:20;77712.88;;;29.49
73673;BMP280;61972;19.480;-99.240;2023-03-14T10:54:55;77706.09;;;29.50
73673;BMP280;61972;19.480;-99.240;2023-03-14T10:57:22;77708.31;;;29.52
73673;BMP280;61972;19.480;-99.240;2023-03-14T10:59:48;77709.00;;;29.55
73673;BMP280;61972;19.480;-99.240;2023-03-14T11:07:44;77719.81;;;29.61
73673;BMP280;61972;19.480;-99.240;2023-03-14T11:12:58;77717.44;;;29.66
73673;BMP280;61972;19.480;-99.240;2023-03-14T11:15:34;77721.28;;;29.69
73673;BMP280;61972;19.480;-99.240;2023-03-14T11:18:16;77714.66;;;29.73
73673;BMP280;61972;19.480;-99.240;2023-03-14T11:20:53;77718.94;;;29.74
73673;BMP280;61972;19.480;-99.240;2023-03-14T11:24:17;77719.06;;;29.77
73673;BMP280;61972;19.480;-99.240;2023-03-14T11:26:37;77727.94;;;29.75
73673;BMP280;61972;19.480;-99.240;2023-03-14T11:31:40;77725.22;;;29.53
73673;BMP280;61972;19.480;-99.240;2023-03-14T11:34:13;77731.34;;;29.39
73673;BMP280;61972;19.480;-99.240;2023-03-14T11:39:18;77740.25;;;29.09
73673;BMP280;61972;19.480;-99.240;2023-03-14T11:41:52;77739.41;;;28.93
73673;BMP280;61972;19.480;-99.240;2023-03-14T11:44:32;77748.53;;;28.77
73673;BMP280;61972;19.480;-99.240;2023-03-14T11:47:05;77746.69;;;28.63
73673;BMP280;61972;19.480;-99.240;2023-03-14T11:52:36;77745.94;;;28.31
73673;BMP280;61972;19.480;-99.240;2023-03-14T11:57:31;77750.13;;;28.03
73673;BMP280;61972;19.480;-99.240;2023-03-14T12:10:49;77762.69;;;27.40
73673;BMP280;61972;19.480;-99.240;2023-03-14T12:13:17;77766.22;;;27.28
73673;BMP280;61972;19.480;-99.240;2023-03-14T12:16:03;77774.44;;;27.17
73673;BMP280;61972;19.480;-99.240;2023-03-14T12:18:32;77772.13;;;27.05
73673;BMP280;61972;19.480;-99.240;2023-03-14T12:21:10;77774.13;;;26.94
73673;BMP280;61972;19.480;-99.240;2023-03-14T12:23:42;77783.03;;;26.86
73673;BMP280;61972;19.480;-99.240;2023-03-14T12:28:43;77778.56;;;26.65
73673;BMP280;61972;19.480;-99.240;2023-03-14T12:39:25;77782.66;;;26.30
73673;BMP280;61972;19.480;-99.240;2023-03-14T12:47:00;77798.56;;;26.08
73673;BMP280;61972;19.480;-99.240;2023-03-14T12:49:33;77805.00;;;26.02
73673;BMP280;61972;19.480;-99.240;2023-03-14T12:52:32;77802.41;;;25.95
73673;BMP280;61972;19.480;-99.240;2023-03-14T13:00:21;77812.66;;;25.75
73673;BMP280;61972;19.480;-99.240;2023-03-14T13:02:49;77810.25;;;25.71
73673;BMP280;61972;19.480;-99.240;2023-03-14T13:05:18;77813.50;;;25.64
73673;BMP280;61972;19.480;-99.240;2023-03-14T13:10:24;77821.22;;;25.54
73673;BMP280;61972;19.480;-99.240;2023-03-14T13:13:24;77822.91;;;25.49
73673;BMP280;61972;19.480;-99.240;2023-03-14T13:15:56;77819.56;;;25.45
73673;BMP280;61972;19.480;-99.240;2023-03-14T13:18:29;77825.56;;;25.41
73673;BMP280;61972;19.480;-99.240;2023-03-14T13:21:13;77826.88;;;25.38
73673;BMP280;61972;19.480;-99.240;2023-03-14T13:23:40;77825.59;;;25.34
73673;BMP280;61972;19.480;-99.240;2023-03-14T13:26:25;77827.88;;;25.29
73673;BMP280;61972;19.480;-99.240;2023-03-14T13:28:53;77828.25;;;25.27
73673;BMP280;61972;19.480;-99.240;2023-03-14T13:31:24;77826.44;;;25.23
73673;BMP280;61972;19.480;-99.240;2023-03-14T13:34:09;77828.28;;;25.20
73673;BMP280;61972;19.480;-99.240;2023-03-14T13:36:36;77834.84;;;25.16
73673;BMP280;61972;19.480;-99.240;2023-03-14T13:39:02;77832.03;;;25.14
73673;BMP280;61972;19.480;-99.240;2023-03-14T13:41:30;77836.56;;;25.10
73673;BMP280;61972;19.480;-99.240;2023-03-14T13:44:03;77846.28;;;25.07
73673;BMP280;61972;19.480;-99.240;2023-03-14T13:46:33;77850.38;;;25.06
73673;BMP280;61972;19.480;-99.240;2023-03-14T13:49:06;77844.41;;;25.03
73673;BMP280;61972;19.480;-99.240;2023-03-14T13:51:33;77853.75;;;25.02
73673;BMP280;61972;19.480;-99.240;2023-03-14T13:53:59;77857.13;;;24.98
73673;BMP280;61972;19.480;-99.240;2023-03-14T13:56:29;77857.53;;;24.96
73673;BMP280;61972;19.480;-99.240;2023-03-14T13:58:56;77860.53;;;24.94
73673;BMP280;61972;19.480;-99.240;2023-03-14T14:01:40;77859.75;;;24.91
73673;BMP280;61972;19.480;-99.240;2023-03-14T14:04:08;77857.53;;;24.89
73673;BMP280;61972;19.480;-99.240;2023-03-14T14:06:39;77872.50;;;24.86
73673;BMP280;61972;19.480;-99.240;2023-03-14T14:09:15;77874.00;;;24.85
73673;BMP280;61972;19.480;-99.240;2023-03-14T14:11:48;77874.38;;;24.83
73673;BMP280;61972;19.480;-99.240;2023-03-14T14:16:51;77877.72;;;24.79
73673;BMP280;61972;19.480;-99.240;2023-03-14T14:19:18;77875.50;;;24.77
73673;BMP280;61972;19.480;-99.240;2023-03-14T14:21:46;77877.00;;;24.76
73673;BMP280;61972;19.480;-99.240;2023-03-14T14:24:14;77876.81;;;24.73
73673;BMP280;61972;19.480;-99.240;2023-03-14T14:27:02;77877.75;;;24.71
73673;BMP280;61972;19.480;-99.240;2023-03-14T14:29:34;77869.94;;;24.71
73673;BMP280;61972;19.480;-99.240;2023-03-14T14:32:12;77872.91;;;24.69
73673;BMP280;61972;19.480;-99.240;2023-03-14T14:34:46;77871.22;;;24.68
73673;BMP280;61972;19.480;-99.240;2023-03-14T14:37:20;77872.16;;;24.66
73673;BMP280;61972;19.480;-99.240;2023-03-14T14:39:47;77874.78;;;24.66
73673;BMP280;61972;19.480;-99.240;2023-03-14T14:42:15;77873.66;;;24.65
73673;BMP280;61972;19.480;-99.240;2023-03-14T14:44:43;77876.28;;;24.65
73673;BMP280;61972;19.480;-99.240;2023-03-14T14:47:14;77873.13;;;24.65
73673;BMP280;61972;19.480;-99.240;2023-03-14T14:49:41;77877.22;;;24.64
73673;BMP280;61972;19.480;-99.240;2023-03-14T14:52:14;77877.75;;;24.64
73673;BMP280;61972;19.480;-99.240;2023-03-14T14:54:47;77881.88;;;24.63
73673;BMP280;61972;19.480;-99.240;2023-03-14T14:57:23;77877.59;;;24.62
73673;BMP280;61972;19.480;-99.240;2023-03-14T14:59:50;77882.25;;;24.61
73673;BMP280;61972;19.480;-99.240;2023-03-14T15:02:34;77879.09;;;24.61
73673;BMP280;61972;19.480;-99.240;2023-03-14T15:05:01;77884.88;;;24.61